Latest Coastal Weather Observations for Smithton

IDT60701

Issued at 5:22 am EDT Sunday 25 October 2020 (issued every 10 minutes, with the page automatically refreshed every 10 minutes)

About coastal observations | Map of coastal stations | Coastal observations for TAS | Marine services | Other Formats
Station Details ID: 091292 Name: SMITHTON AERODROME Lat: -40.83 Lon: 145.08 Height: 7.5 m
Data from the previous 72 hours. | See also: Recent months at Smithton
Date/Time
EDT
Wind Sea
Height
m
Swell Vis
km
Cloud Weather Temp
°C
Press
MSL
hPa
Rain since
9am
mm
Dir  Spd
kts
Gust
kts
Height
m
Period
s
Dir
25/05:00am SSW 15 21 - - - - - - - 4.8 1017.4 0.4
25/04:30am SSW 13 19 - - - - - - - 4.7 1017.0 0.4
25/04:00am SSW 14 20 - - - - - - - 4.8 1016.8 0.4
25/03:30am SSW 14 17 - - - - - - - 4.4 1016.2 0.4
25/03:00am SSW 11 15 - - - - - - - 4.4 1016.1 0.4
25/02:30am S 7 9 - - - - - - - 3.3 1015.8 0.4
25/02:00am SSW 8 9 - - - - - - - 2.9 1015.6 0.4
25/01:30am SSW 7 8 - - - - - - - 3.1 1015.5 0.4
25/01:00am SSW 10 14 - - - - - - - 5.0 1015.1 0.4
25/12:30am SSW 13 17 - - - - - - - 5.7 1014.6 0.4
25/12:00am SSW 12 16 - - - - - - - 5.6 1014.4 0.4
 
Date/Time
EDT
Wind Sea
Height
m
Swell Vis
km
Cloud Weather Temp
°C
Press
MSL
hPa
Rain since
9am
mm
Dir  Spd
kts
Gust
kts
Height
m
Period
s
Dir
24/11:30pm SSW 10 15 - - - - - - - 5.9 1014.1 0.4
24/11:00pm SSW 10 13 - - - - - - - 6.0 1013.8 0.4
24/10:30pm SSW 11 14 - - - - - - - 6.4 1013.6 0.4
24/10:00pm S 12 17 - - - - - - - 6.9 1013.2 0.4
24/09:30pm SSW 16 22 - - - - - - - 7.7 1012.6 0.4
24/09:16pm SW 15 23 - - - - - - - 7.9 1012.3 0.4
24/09:00pm SW 9 11 - - - - - - - 7.1 1011.8 0.4
24/08:30pm SSW 13 17 - - - - - - - 7.8 1011.2 0.4
24/08:00pm SW 10 12 - - - - - - - 8.0 1010.7 0.4
24/07:30pm SW 13 19 - - - - - - - 8.3 1009.8 0.4
24/07:00pm SSW 13 17 - - - - - - - 10.5 1009.1 0.0
24/06:30pm S 13 16 - - - - - - - 10.5 1008.8 0.0
24/06:08pm SW 15 25 - - - - - - - 11.6 1008.4 0.0
24/06:00pm SW 18 25 - - - - - - - 11.2 1008.4 0.0
24/05:30pm WSW 18 23 - - - - - - - 10.9 1008.1 0.0
24/05:03pm SW 17 27 - - - - - - - 11.0 1007.9 0.0
24/05:00pm SW 19 27 - - - - - - - 10.6 1007.9 0.0
24/04:54pm SSW 17 27 - - - - - - - 10.4 1007.8 0.0
24/04:30pm SW 18 23 - - - - - - - 12.8 1007.4 0.0
24/04:01pm SW 19 31 - - - - - - - 14.0 1007.1 0.0
24/04:00pm SW 18 25 - - - - - - - 14.2 1007.1 0.0
24/03:39pm SW 20 30 - - - - - - - 12.7 1007.3 0.0
24/03:30pm SW 21 30 - - - - - - - 12.9 1007.2 0.0
24/03:00pm SW 21 28 - - - - - - - 13.9 1007.0 0.0
24/02:30pm SW 23 30 - - - - - - - 13.1 1006.9 0.0
24/02:00pm SW 21 28 - - - - - - - 14.1 1006.6 0.0
24/01:46pm WSW 22 30 - - - - - - - 13.9 1006.5 0.0
24/01:30pm SW 21 27 - - - - - - - 13.2 1006.4 0.0
24/01:00pm SW 21 31 - - - - - - - 13.1 1006.0 0.0
24/12:57pm SW 21 31 - - - - - - - 13.3 1005.9 0.0
24/12:30pm SW 19 26 - - - - - - - 14.8 1005.7 0.0
24/12:00pm SW 21 26 - - - - - - - 13.1 1005.6 0.0
24/11:30am SSW 18 25 - - - - - - - 12.7 1005.6 0.0
24/11:00am SSW 19 26 - - - - - - - 13.1 1005.4 0.0
24/10:30am SW 19 27 - - - - - - - 12.0 1005.2 0.0
24/10:18am SSW 17 27 - - - - - - - 11.6 1005.1 0.0
24/10:00am SSW 15 21 - - - - - - - 11.7 1005.0 0.0
24/09:30am WSW 15 20 - - - - - - - 13.6 1004.8 0.0
24/09:00am SW 14 19 - - - - - - - 12.7 1004.6 6.0
24/08:30am SW 11 14 - - - - - - - 11.0 1004.5 6.0
24/08:00am SW 11 14 - - - - - - - 10.2 1004.5 6.0
24/07:30am SW 9 11 - - - - - - - 9.9 1004.3 6.0
24/07:00am SW 11 14 - - - - - - - 9.6 1004.2 6.0
24/06:30am SW 11 15 - - - - - - - 9.7 1004.0 6.0
24/06:00am SW 10 13 - - - - - - - 9.7 1003.7 6.0
24/05:30am SW 11 14 - - - - - - - 9.9 1003.7 6.0
24/05:00am SW 10 12 - - - - - - - 9.9 1003.6 6.0
24/04:30am SW 10 13 - - - - - - - 10.3 1003.7 6.0
24/04:00am SW 10 12 - - - - - - - 10.9 1003.7 6.0
24/03:30am SW 10 13 - - - - - - - 11.2 1003.7 6.0
24/03:00am SW 9 12 - - - - - - - 11.4 1003.6 6.0
24/02:30am SW 6 8 - - - - - - - 11.4 1003.7 6.0
24/02:00am SW 6 7 - - - - - - - 11.4 1004.1 6.0
24/01:30am SSW 4 5 - - - - - - - 11.5 1004.4 6.0
24/01:00am SSW 5 6 - - - - - - - 11.6 1005.0 6.0
24/12:30am SSW 6 7 - - - - - - - 11.7 1005.1 5.8
24/12:00am SSW 5 7 - - - - - - Recent precip. 11.9 1005.3 5.6
 
Date/Time
EDT
Wind Sea
Height
m
Swell Vis
km
Cloud Weather Temp
°C
Press
MSL
hPa
Rain since
9am
mm
Dir  Spd
kts
Gust
kts
Height
m
Period
s
Dir
23/11:30pm SSW 5 6 - - - - - - - 11.9 1005.6 5.2
23/11:00pm SW 4 5 - - - - - - - 12.0 1006.0 4.8
23/10:30pm WSW 4 5 - - - - - - - 12.1 1006.2 4.6
23/10:00pm SW 5 5 - - - - - - - 12.2 1006.5 4.4
23/09:30pm SW 5 6 - - - - - - - 12.3 1006.5 4.2
23/09:00pm SW 5 6 - - - - - - Rain 12.3 1006.4 4.0
23/08:30pm CALM 0 0 - - - - - - - 12.7 1006.4 3.4
23/08:00pm WNW 1 3 - - - - - - - 12.7 1006.4 3.4
23/07:30pm NW 5 7 - - - - - - - 12.7 1006.5 3.2
23/07:00pm NNW 3 4 - - - - - - - 13.0 1006.2 3.0
23/06:30pm N 3 4 - - - - - - - 13.1 1006.0 3.0
23/06:00pm N 3 4 - - - - - - - 13.0 1006.0 3.0
23/05:30pm N 6 7 - - - - - - - 13.1 1006.3 3.0
23/05:00pm N 6 7 - - - - - - - 13.5 1006.3 3.0
23/04:30pm N 6 8 - - - - - - - 13.6 1006.1 3.0
23/04:00pm N 6 8 - - - - - - - 13.2 1006.7 3.0
23/03:30pm N 9 11 - - - - - - - 13.5 1007.0 3.0
23/03:00pm NNE 9 12 - - - - - - - 13.3 1007.6 2.6
23/02:30pm NNE 8 10 - - - - - - - 13.7 1007.7 2.6
23/02:00pm NE 5 6 - - - - - - - 14.0 1007.5 2.6
23/01:30pm NNE 5 7 - - - - - - - 14.1 1008.0 2.6
23/01:00pm N 4 5 - - - - - - - 14.1 1008.4 2.6
23/12:30pm NNE 5 6 - - - - - - - 14.0 1009.1 2.6
23/12:00pm NNE 6 9 - - - - - - Rain 12.9 1009.7 2.4
23/11:30am NE 8 11 - - - - - - - 13.3 1009.8 2.0
23/11:00am ENE 11 14 - - - - - - - 12.9 1009.8 1.4
23/10:30am ENE 12 16 - - - - - - - 12.7 1009.6 1.2
23/10:00am NE 12 16 - - - - - - - 12.5 1010.1 0.6
23/09:30am ENE 11 15 - - - - - - - 12.3 1010.3 0.6
23/09:00am ENE 11 15 - - - - - - Rain 12.1 1010.5 2.0
23/08:30am ENE 9 12 - - - - - - - 12.0 1010.4 1.0
23/08:00am ENE 9 13 - - - - - - - 12.0 1010.4 0.4
23/07:30am ENE 10 13 - - - - - - - 12.1 1010.7 0.0
23/07:00am ENE 9 12 - - - - - - - 12.2 1010.7 0.0
23/06:30am ENE 8 10 - - - - - - - 11.9 1010.8 0.0
23/06:00am ENE 6 8 - - - - - - - 11.6 1010.6 0.0
23/05:30am ENE 7 9 - - - - - - - 11.6 1010.5 0.0
23/05:00am ENE 7 11 - - - - - - - 11.7 1010.4 0.0
23/04:30am ENE 7 8 - - - - - - - 11.3 1010.7 0.0
23/04:00am ENE 7 8 - - - - - - - 11.0 1011.0 0.0
23/03:30am ENE 6 7 - - - - - - - 11.1 1011.1 0.0
23/03:00am E 6 8 - - - - - - - 11.2 1011.2 0.0
23/02:30am NE 9 11 - - - - - - - 11.9 1011.7 0.0
23/02:00am NE 9 13 - - - - - - - 11.7 1012.3 0.0
23/01:30am NE 8 10 - - - - - - - 11.7 1013.1 0.0
23/01:00am ENE 6 8 - - - - - - - 10.9 1013.4 0.0
23/12:30am E 4 5 - - - - - - - 10.3 1013.9 0.0
23/12:00am E 6 7 - - - - - - - 11.0 1014.3 0.0
 
Date/Time
EDT
Wind Sea
Height
m
Swell Vis
km
Cloud Weather Temp
°C
Press
MSL
hPa
Rain since
9am
mm
Dir  Spd
kts
Gust
kts
Height
m
Period
s
Dir
22/11:30pm ENE 6 7 - - - - - - - 10.5 1014.2 0.0
22/11:00pm ENE 8 10 - - - - - - - 10.5 1014.1 0.0
22/10:30pm E 6 7 - - - - - - - 10.3 1014.8 0.0
22/10:00pm E 6 7 - - - - - - - 10.5 1015.0 0.0
22/09:30pm ENE 7 8 - - - - - - - 10.8 1015.0 0.0
22/09:00pm ENE 5 7 - - - - - - - 10.7 1015.0 0.0
22/08:30pm ENE 6 7 - - - - - - - 11.1 1014.6 0.0
22/08:00pm E 6 6 - - - - - - - 11.0 1014.4 0.0
22/07:30pm ENE 6 7 - - - - - - - 12.3 1014.2 0.0
22/07:00pm NE 4 5 - - - - - - - 13.1 1014.2 0.0
22/06:30pm NNE 4 6 - - - - - - - 13.4 1014.3 0.0
22/06:00pm N 7 8 - - - - - - - 13.7 1014.6 0.0
22/05:30pm N 7 9 - - - - - - - 14.3 1014.2 0.0
22/05:00pm N 10 12 - - - - - - - 14.4 1014.6 0.0
22/04:30pm NNE 9 12 - - - - - - - 16.7 1014.3 0.0
22/04:00pm NE 7 11 - - - - - - - 16.9 1014.5 0.0
22/03:30pm NE 10 12 - - - - - - - 17.2 1014.6 0.0
22/03:00pm NNE 11 15 - - - - - - - 17.5 1015.1 0.0
22/02:30pm NE 11 15 - - - - - - - 17.1 1015.4 0.0
22/02:00pm NE 12 15 - - - - - - - 17.4 1015.3 0.0
22/01:30pm NE 13 16 - - - - - - - 17.6 1015.2 0.0
22/01:00pm NE 12 14 - - - - - - - 17.2 1015.4 0.0
22/12:30pm NNE 12 17 - - - - - - - 17.4 1015.7 0.0
22/12:00pm NE 11 14 - - - - - - - 18.1 1015.9 0.0
22/11:30am NE 9 14 - - - - - - - 17.4 1016.0 0.0
22/11:00am NNE 8 11 - - - - - - - 16.6 1016.1 0.0
22/10:30am ENE 6 10 - - - - - - - 16.6 1016.2 0.0
22/10:00am E 4 7 - - - - - - - 16.6 1016.1 0.0
22/09:30am SSW 5 8 - - - - - - - 14.8 1016.5 0.0
22/09:00am S 5 7 - - - - - - - 13.1 1016.7 0.2
22/08:30am S 6 8 - - - - - - - 12.4 1016.4 0.2
22/08:00am S 6 8 - - - - - - - 11.4 1016.2 0.2
22/07:30am S 9 11 - - - - - - - 9.9 1015.8 0.2
22/07:00am S 7 9 - - - - - - - 8.4 1015.6 0.2
22/06:30am S 7 9 - - - - - - - 7.8 1015.3 0.2
22/06:00am S 7 8 - - - - - - - 7.7 1015.2 0.2
22/05:30am S 7 8 - - - - - - - 7.0 1015.1 0.2

Other formats

Comma delimited format used in spreadsheet applications
http://www.bom.gov.au/fwo/IDT60701/IDT60701.94953.axf

JavaScript Object Notation format (JSON) in row-major order
http://www.bom.gov.au/fwo/IDT60701/IDT60701.94953.json

Data quality

Most of these data are generated automatically and are frequently updated. Quality checks on data are not normally performed. It is possible for incorrect values to appear. Refer to information at About Latest Weather Observations and please check the disclaimer before using these data.